sensor_id;sensor_type;location;lat;lon;timestamp;temperature;humidity
16247;DHT22;8231;50.866;7.944;2022-10-17T00:00:54;11.40;99.90
16247;DHT22;8231;50.866;7.944;2022-10-17T00:03:22;11.30;99.90
16247;DHT22;8231;50.866;7.944;2022-10-17T00:05:50;11.30;99.90
16247;DHT22;8231;50.866;7.944;2022-10-17T00:08:18;11.30;99.90
16247;DHT22;8231;50.866;7.944;2022-10-17T00:10:55;11.30;99.90
16247;DHT22;8231;50.866;7.944;2022-10-17T00:13:25;11.20;99.90
16247;DHT22;8231;50.866;7.944;2022-10-17T00:15:53;11.20;99.90
16247;DHT22;8231;50.866;7.944;2022-10-17T00:18:21;11.20;99.90
16247;DHT22;8231;50.866;7.944;2022-10-17T00:20:50;11.30;99.90
16247;DHT22;8231;50.866;7.944;2022-10-17T00:23:18;11.30;99.90
16247;DHT22;8231;50.866;7.944;2022-10-17T00:25:46;11.20;99.90
16247;DHT22;8231;50.866;7.944;2022-10-17T00:28:14;11.40;99.90
16247;DHT22;8231;50.866;7.944;2022-10-17T00:30:44;11.20;99.90
16247;DHT22;8231;50.866;7.944;2022-10-17T00:33:12;11.20;99.90
16247;DHT22;8231;50.866;7.944;2022-10-17T00:35:40;11.30;99.90
16247;DHT22;8231;50.866;7.944;2022-10-17T00:38:09;11.30;99.90
16247;DHT22;8231;50.866;7.944;2022-10-17T00:40:38;11.20;99.90
16247;DHT22;8231;50.866;7.944;2022-10-17T00:43:12;11.20;99.90
16247;DHT22;8231;50.866;7.944;2022-10-17T00:45:43;11.20;99.90
16247;DHT22;8231;50.866;7.944;2022-10-17T00:48:12;11.20;99.90
16247;DHT22;8231;50.866;7.944;2022-10-17T00:50:41;11.20;99.90
16247;DHT22;8231;50.866;7.944;2022-10-17T00:53:11;11.20;99.90
16247;DHT22;8231;50.866;7.944;2022-10-17T00:55:45;11.30;99.90
16247;DHT22;8231;50.866;7.944;2022-10-17T00:58:15;11.30;99.90
16247;DHT22;8231;50.866;7.944;2022-10-17T01:00:46;11.40;99.90
16247;DHT22;8231;50.866;7.944;2022-10-17T01:03:15;11.40;99.90
16247;DHT22;8231;50.866;7.944;2022-10-17T01:05:43;11.50;99.90
16247;DHT22;8231;50.866;7.944;2022-10-17T01:08:11;11.50;99.90
16247;DHT22;8231;50.866;7.944;2022-10-17T01:10:48;11.60;99.90
16247;DHT22;8231;50.866;7.944;2022-10-17T01:13:22;11.60;99.90
16247;DHT22;8231;50.866;7.944;2022-10-17T01:15:59;11.60;99.90
16247;DHT22;8231;50.866;7.944;2022-10-17T01:18:39;11.60;99.90
16247;DHT22;8231;50.866;7.944;2022-10-17T01:21:26;11.60;99.90
16247;DHT22;8231;50.866;7.944;2022-10-17T01:24:26;11.70;99.90
16247;DHT22;8231;50.866;7.944;2022-10-17T01:27:22;11.70;99.90
16247;DHT22;8231;50.866;7.944;2022-10-17T01:30:10;11.70;99.90
16247;DHT22;8231;50.866;7.944;2022-10-17T01:32:49;11.70;99.90
16247;DHT22;8231;50.866;7.944;2022-10-17T01:35:24;11.70;99.90
16247;DHT22;8231;50.866;7.944;2022-10-17T01:37:58;11.80;99.90
16247;DHT22;8231;50.866;7.944;2022-10-17T01:40:33;11.70;99.90
16247;DHT22;8231;50.866;7.944;2022-10-17T01:43:05;11.70;99.90
16247;DHT22;8231;50.866;7.944;2022-10-17T01:45:41;11.80;99.90
16247;DHT22;8231;50.866;7.944;2022-10-17T01:48:15;11.80;99.90
16247;DHT22;8231;50.866;7.944;2022-10-17T01:50:48;11.80;99.90
16247;DHT22;8231;50.866;7.944;2022-10-17T01:53:20;11.80;99.90
16247;DHT22;8231;50.866;7.944;2022-10-17T01:55:51;11.80;99.90
16247;DHT22;8231;50.866;7.944;2022-10-17T01:58:25;11.90;99.90
16247;DHT22;8231;50.866;7.944;2022-10-17T02:00:58;11.90;99.90
16247;DHT22;8231;50.866;7.944;2022-10-17T02:03:33;11.80;99.90
16247;DHT22;8231;50.866;7.944;2022-10-17T02:06:05;11.80;99.90
16247;DHT22;8231;50.866;7.944;2022-10-17T02:08:40;11.80;99.90
16247;DHT22;8231;50.866;7.944;2022-10-17T02:11:13;11.70;99.90
16247;DHT22;8231;50.866;7.944;2022-10-17T02:13:58;11.70;99.90
16247;DHT22;8231;50.866;7.944;2022-10-17T02:16:35;11.70;99.90
16247;DHT22;8231;50.866;7.944;2022-10-17T02:22:06;11.60;99.90
16247;DHT22;8231;50.866;7.944;2022-10-17T02:24:44;11.70;99.90
16247;DHT22;8231;50.866;7.944;2022-10-17T02:27:17;11.60;99.90
16247;DHT22;8231;50.866;7.944;2022-10-17T02:29:55;11.60;99.90
16247;DHT22;8231;50.866;7.944;2022-10-17T02:32:33;11.50;99.90
16247;DHT22;8231;50.866;7.944;2022-10-17T02:35:06;11.50;99.90
16247;DHT22;8231;50.866;7.944;2022-10-17T02:37:36;11.50;99.90
16247;DHT22;8231;50.866;7.944;2022-10-17T02:40:06;11.50;99.90
16247;DHT22;8231;50.866;7.944;2022-10-17T02:42:38;11.40;99.90
16247;DHT22;8231;50.866;7.944;2022-10-17T02:45:08;11.40;99.90
16247;DHT22;8231;50.866;7.944;2022-10-17T02:47:42;11.40;99.90
16247;DHT22;8231;50.866;7.944;2022-10-17T02:50:14;11.40;99.90
16247;DHT22;8231;50.866;7.944;2022-10-17T02:52:47;11.30;99.90
16247;DHT22;8231;50.866;7.944;2022-10-17T02:55:18;11.30;99.90
16247;DHT22;8231;50.866;7.944;2022-10-17T02:57:51;11.20;99.90
16247;DHT22;8231;50.866;7.944;2022-10-17T03:00:21;11.10;99.90
16247;DHT22;8231;50.866;7.944;2022-10-17T03:02:52;11.10;99.90
16247;DHT22;8231;50.866;7.944;2022-10-17T03:05:23;11.10;99.90
16247;DHT22;8231;50.866;7.944;2022-10-17T03:07:52;11.10;99.90
16247;DHT22;8231;50.866;7.944;2022-10-17T03:10:20;11.00;99.90
16247;DHT22;8231;50.866;7.944;2022-10-17T03:12:48;11.00;99.90
16247;DHT22;8231;50.866;7.944;2022-10-17T03:15:17;11.00;99.90
16247;DHT22;8231;50.866;7.944;2022-10-17T03:17:45;11.00;99.90
16247;DHT22;8231;50.866;7.944;2022-10-17T03:20:13;11.00;99.90
16247;DHT22;8231;50.866;7.944;2022-10-17T03:22:43;11.00;99.90
16247;DHT22;8231;50.866;7.944;2022-10-17T03:25:11;11.30;99.90
16247;DHT22;8231;50.866;7.944;2022-10-17T03:27:39;11.00;99.90
16247;DHT22;8231;50.866;7.944;2022-10-17T03:30:08;11.00;99.90
16247;DHT22;8231;50.866;7.944;2022-10-17T03:32:37;10.90;99.90
16247;DHT22;8231;50.866;7.944;2022-10-17T03:35:06;10.90;99.90
16247;DHT22;8231;50.866;7.944;2022-10-17T03:37:45;10.80;99.90
16247;DHT22;8231;50.866;7.944;2022-10-17T03:40:14;10.90;99.90
16247;DHT22;8231;50.866;7.944;2022-10-17T03:42:43;10.80;99.90
16247;DHT22;8231;50.866;7.944;2022-10-17T03:45:11;10.80;99.90
16247;DHT22;8231;50.866;7.944;2022-10-17T03:47:40;10.80;99.90
16247;DHT22;8231;50.866;7.944;2022-10-17T03:50:08;10.80;99.90
16247;DHT22;8231;50.866;7.944;2022-10-17T03:52:38;10.80;99.90
16247;DHT22;8231;50.866;7.944;2022-10-17T03:55:08;10.70;99.90
16247;DHT22;8231;50.866;7.944;2022-10-17T03:57:36;10.70;99.90
16247;DHT22;8231;50.866;7.944;2022-10-17T04:00:10;10.70;99.90
16247;DHT22;8231;50.866;7.944;2022-10-17T04:02:48;10.70;99.90
16247;DHT22;8231;50.866;7.944;2022-10-17T04:05:18;10.70;99.90
16247;DHT22;8231;50.866;7.944;2022-10-17T04:07:47;10.70;99.90
16247;DHT22;8231;50.866;7.944;2022-10-17T04:10:18;10.70;99.90
16247;DHT22;8231;50.866;7.944;2022-10-17T04:12:46;10.70;99.90
16247;DHT22;8231;50.866;7.944;2022-10-17T04:15:14;10.70;99.90
16247;DHT22;8231;50.866;7.944;2022-10-17T04:17:43;10.70;99.90
16247;DHT22;8231;50.866;7.944;2022-10-17T04:20:12;10.70;99.90
16247;DHT22;8231;50.866;7.944;2022-10-17T04:22:41;10.70;99.90
16247;DHT22;8231;50.866;7.944;2022-10-17T04:25:09;10.80;99.90
16247;DHT22;8231;50.866;7.944;2022-10-17T04:27:43;10.60;99.90
16247;DHT22;8231;50.866;7.944;2022-10-17T04:30:13;10.90;99.90
16247;DHT22;8231;50.866;7.944;2022-10-17T04:32:42;10.70;99.90
16247;DHT22;8231;50.866;7.944;2022-10-17T04:35:18;10.70;99.90
16247;DHT22;8231;50.866;7.944;2022-10-17T04:37:52;10.70;99.90
16247;DHT22;8231;50.866;7.944;2022-10-17T04:40:21;10.70;99.90
16247;DHT22;8231;50.866;7.944;2022-10-17T04:42:52;10.70;99.90
16247;DHT22;8231;50.866;7.944;2022-10-17T04:45:26;10.70;99.90
16247;DHT22;8231;50.866;7.944;2022-10-17T04:47:59;10.70;99.90
16247;DHT22;8231;50.866;7.944;2022-10-17T04:50:27;10.70;99.90
16247;DHT22;8231;50.866;7.944;2022-10-17T04:53:25;10.70;99.90
16247;DHT22;8231;50.866;7.944;2022-10-17T04:55:54;10.70;99.90
16247;DHT22;8231;50.866;7.944;2022-10-17T04:58:24;10.70;99.90
16247;DHT22;8231;50.866;7.944;2022-10-17T05:00:52;10.70;99.90
16247;DHT22;8231;50.866;7.944;2022-10-17T05:03:25;10.60;99.90
16247;DHT22;8231;50.866;7.944;2022-10-17T05:05:53;10.60;99.90
16247;DHT22;8231;50.866;7.944;2022-10-17T05:08:22;10.60;99.90
16247;DHT22;8231;50.866;7.944;2022-10-17T05:10:50;10.60;99.90
16247;DHT22;8231;50.866;7.944;2022-10-17T05:13:18;10.60;99.90
16247;DHT22;8231;50.866;7.944;2022-10-17T05:15:48;10.60;99.90
16247;DHT22;8231;50.866;7.944;2022-10-17T05:18:16;10.40;99.90
16247;DHT22;8231;50.866;7.944;2022-10-17T05:20:45;10.50;99.90
16247;DHT22;8231;50.866;7.944;2022-10-17T05:23:14;10.50;99.90
16247;DHT22;8231;50.866;7.944;2022-10-17T05:25:43;10.50;99.90
16247;DHT22;8231;50.866;7.944;2022-10-17T05:28:11;10.50;99.90
16247;DHT22;8231;50.866;7.944;2022-10-17T05:30:41;10.60;99.90
16247;DHT22;8231;50.866;7.944;2022-10-17T05:33:10;10.50;99.90
16247;DHT22;8231;50.866;7.944;2022-10-17T05:35:39;10.50;99.90
16247;DHT22;8231;50.866;7.944;2022-10-17T05:38:09;10.50;99.90
16247;DHT22;8231;50.866;7.944;2022-10-17T05:40:40;10.60;99.90
16247;DHT22;8231;50.866;7.944;2022-10-17T05:43:09;10.50;99.90
16247;DHT22;8231;50.866;7.944;2022-10-17T05:45:37;10.40;99.90
16247;DHT22;8231;50.866;7.944;2022-10-17T05:48:10;10.60;99.90
16247;DHT22;8231;50.866;7.944;2022-10-17T05:50:38;10.40;99.90
16247;DHT22;8231;50.866;7.944;2022-10-17T05:53:14;10.40;99.90
16247;DHT22;8231;50.866;7.944;2022-10-17T05:55:54;10.40;99.90
16247;DHT22;8231;50.866;7.944;2022-10-17T05:58:22;10.50;99.90
16247;DHT22;8231;50.866;7.944;2022-10-17T06:01:22;10.50;99.90
16247;DHT22;8231;50.866;7.944;2022-10-17T06:03:51;10.50;99.90
16247;DHT22;8231;50.866;7.944;2022-10-17T06:06:20;10.50;99.90
16247;DHT22;8231;50.866;7.944;2022-10-17T06:08:48;10.50;99.90
16247;DHT22;8231;50.866;7.944;2022-10-17T06:11:21;10.50;99.90
16247;DHT22;8231;50.866;7.944;2022-10-17T06:13:49;10.50;99.90
16247;DHT22;8231;50.866;7.944;2022-10-17T06:16:23;10.50;99.90
16247;DHT22;8231;50.866;7.944;2022-10-17T06:18:52;10.60;99.90
16247;DHT22;8231;50.866;7.944;2022-10-17T06:21:24;10.70;99.90
16247;DHT22;8231;50.866;7.944;2022-10-17T06:24:01;10.70;99.90
16247;DHT22;8231;50.866;7.944;2022-10-17T06:26:33;10.80;99.90
16247;DHT22;8231;50.866;7.944;2022-10-17T06:29:02;10.80;99.90
16247;DHT22;8231;50.866;7.944;2022-10-17T06:31:35;10.90;99.90
16247;DHT22;8231;50.866;7.944;2022-10-17T06:34:05;10.90;99.90
16247;DHT22;8231;50.866;7.944;2022-10-17T06:36:34;11.00;99.90
16247;DHT22;8231;50.866;7.944;2022-10-17T06:39:03;11.10;99.90
16247;DHT22;8231;50.866;7.944;2022-10-17T06:41:36;11.20;99.90
16247;DHT22;8231;50.866;7.944;2022-10-17T06:44:07;11.30;99.90
16247;DHT22;8231;50.866;7.944;2022-10-17T06:46:46;11.40;99.90
16247;DHT22;8231;50.866;7.944;2022-10-17T06:49:18;11.50;99.90
16247;DHT22;8231;50.866;7.944;2022-10-17T06:52:11;11.50;99.90
16247;DHT22;8231;50.866;7.944;2022-10-17T06:54:50;11.60;99.90
16247;DHT22;8231;50.866;7.944;2022-10-17T06:57:39;11.70;99.90
16247;DHT22;8231;50.866;7.944;2022-10-17T07:00:40;11.80;99.90
16247;DHT22;8231;50.866;7.944;2022-10-17T07:03:10;11.90;99.90
16247;DHT22;8231;50.866;7.944;2022-10-17T07:05:40;11.90;99.90
16247;DHT22;8231;50.866;7.944;2022-10-17T07:08:08;12.20;99.90
16247;DHT22;8231;50.866;7.944;2022-10-17T07:10:37;12.00;99.90
16247;DHT22;8231;50.866;7.944;2022-10-17T07:13:06;12.10;99.90
16247;DHT22;8231;50.866;7.944;2022-10-17T07:15:36;12.20;99.90
16247;DHT22;8231;50.866;7.944;2022-10-17T07:18:04;12.30;99.90
16247;DHT22;8231;50.866;7.944;2022-10-17T07:20:33;12.30;99.90
16247;DHT22;8231;50.866;7.944;2022-10-17T07:23:02;12.40;99.90
16247;DHT22;8231;50.866;7.944;2022-10-17T07:25:31;12.40;99.90
16247;DHT22;8231;50.866;7.944;2022-10-17T07:28:06;12.50;99.90
16247;DHT22;8231;50.866;7.944;2022-10-17T07:30:35;12.60;99.90
16247;DHT22;8231;50.866;7.944;2022-10-17T07:33:07;12.70;99.90
16247;DHT22;8231;50.866;7.944;2022-10-17T07:35:37;12.60;99.90
16247;DHT22;8231;50.866;7.944;2022-10-17T07:38:08;12.80;99.90
16247;DHT22;8231;50.866;7.944;2022-10-17T07:40:36;12.90;99.90
16247;DHT22;8231;50.866;7.944;2022-10-17T07:43:04;13.00;99.90
16247;DHT22;8231;50.866;7.944;2022-10-17T07:45:32;13.10;99.90
16247;DHT22;8231;50.866;7.944;2022-10-17T07:48:01;13.20;99.90
16247;DHT22;8231;50.866;7.944;2022-10-17T07:50:30;13.20;99.90
16247;DHT22;8231;50.866;7.944;2022-10-17T07:52:58;13.30;99.90
16247;DHT22;8231;50.866;7.944;2022-10-17T07:55:28;13.40;99.90
16247;DHT22;8231;50.866;7.944;2022-10-17T07:57:56;13.70;99.90
16247;DHT22;8231;50.866;7.944;2022-10-17T08:00:26;13.70;99.90
16247;DHT22;8231;50.866;7.944;2022-10-17T08:02:54;13.80;99.90
16247;DHT22;8231;50.866;7.944;2022-10-17T08:05:22;13.90;99.90
16247;DHT22;8231;50.866;7.944;2022-10-17T08:07:50;14.00;99.90
16247;DHT22;8231;50.866;7.944;2022-10-17T08:10:18;14.10;99.90
16247;DHT22;8231;50.866;7.944;2022-10-17T08:12:48;14.20;99.90
16247;DHT22;8231;50.866;7.944;2022-10-17T08:15:16;14.40;99.90
16247;DHT22;8231;50.866;7.944;2022-10-17T08:17:44;14.60;99.90
16247;DHT22;8231;50.866;7.944;2022-10-17T08:20:13;14.70;99.90
16247;DHT22;8231;50.866;7.944;2022-10-17T08:22:41;14.80;99.90
16247;DHT22;8231;50.866;7.944;2022-10-17T08:25:09;14.90;99.90
16247;DHT22;8231;50.866;7.944;2022-10-17T08:27:37;15.10;99.90
16247;DHT22;8231;50.866;7.944;2022-10-17T08:30:08;15.20;99.90
16247;DHT22;8231;50.866;7.944;2022-10-17T08:32:36;15.30;99.90
16247;DHT22;8231;50.866;7.944;2022-10-17T08:35:05;15.40;99.90
16247;DHT22;8231;50.866;7.944;2022-10-17T08:37:33;15.60;99.90
16247;DHT22;8231;50.866;7.944;2022-10-17T08:40:02;15.70;99.90
16247;DHT22;8231;50.866;7.944;2022-10-17T08:42:44;15.90;99.90
16247;DHT22;8231;50.866;7.944;2022-10-17T08:45:22;16.00;99.90
16247;DHT22;8231;50.866;7.944;2022-10-17T08:47:56;16.20;99.90
16247;DHT22;8231;50.866;7.944;2022-10-17T08:50:29;16.30;99.90
16247;DHT22;8231;50.866;7.944;2022-10-17T08:53:03;16.50;99.90
16247;DHT22;8231;50.866;7.944;2022-10-17T08:55:35;16.60;99.90
16247;DHT22;8231;50.866;7.944;2022-10-17T08:58:12;16.80;99.90
16247;DHT22;8231;50.866;7.944;2022-10-17T09:00:45;17.00;99.90
16247;DHT22;8231;50.866;7.944;2022-10-17T09:03:43;17.20;99.90
16247;DHT22;8231;50.866;7.944;2022-10-17T09:06:18;17.40;99.90
16247;DHT22;8231;50.866;7.944;2022-10-17T09:09:18;17.60;99.90
16247;DHT22;8231;50.866;7.944;2022-10-17T09:12:02;17.90;99.90
16247;DHT22;8231;50.866;7.944;2022-10-17T09:14:49;18.10;99.90
16247;DHT22;8231;50.866;7.944;2022-10-17T09:17:34;18.40;99.90
16247;DHT22;8231;50.866;7.944;2022-10-17T09:20:11;18.50;99.90
16247;DHT22;8231;50.866;7.944;2022-10-17T09:22:46;18.60;99.90
16247;DHT22;8231;50.866;7.944;2022-10-17T09:25:18;18.70;99.90
16247;DHT22;8231;50.866;7.944;2022-10-17T09:27:50;18.70;99.90
16247;DHT22;8231;50.866;7.944;2022-10-17T09:30:34;18.80;99.90
16247;DHT22;8231;50.866;7.944;2022-10-17T09:33:14;19.00;99.90
16247;DHT22;8231;50.866;7.944;2022-10-17T09:36:04;19.20;99.90
16247;DHT22;8231;50.866;7.944;2022-10-17T09:38:39;19.40;99.90
16247;DHT22;8231;50.866;7.944;2022-10-17T09:41:16;19.40;99.90
16247;DHT22;8231;50.866;7.944;2022-10-17T09:44:14;19.60;99.90
16247;DHT22;8231;50.866;7.944;2022-10-17T09:47:00;19.60;99.90
16247;DHT22;8231;50.866;7.944;2022-10-17T09:49:34;19.70;99.90
16247;DHT22;8231;50.866;7.944;2022-10-17T09:52:05;19.90;99.90
16247;DHT22;8231;50.866;7.944;2022-10-17T09:54:40;20.20;99.90
16247;DHT22;8231;50.866;7.944;2022-10-17T09:57:10;20.30;99.90
16247;DHT22;8231;50.866;7.944;2022-10-17T09:59:40;20.50;99.90
16247;DHT22;8231;50.866;7.944;2022-10-17T10:02:16;20.60;99.90
16247;DHT22;8231;50.866;7.944;2022-10-17T10:05:00;20.60;99.90
16247;DHT22;8231;50.866;7.944;2022-10-17T10:07:33;20.70;99.90
16247;DHT22;8231;50.866;7.944;2022-10-17T10:10:05;20.80;99.90
16247;DHT22;8231;50.866;7.944;2022-10-17T10:12:35;20.90;99.90
16247;DHT22;8231;50.866;7.944;2022-10-17T10:15:30;20.90;99.90
16247;DHT22;8231;50.866;7.944;2022-10-17T10:17:59;20.70;99.90
16247;DHT22;8231;50.866;7.944;2022-10-17T10:20:32;20.50;99.90
16247;DHT22;8231;50.866;7.944;2022-10-17T10:23:11;20.30;99.90
16247;DHT22;8231;50.866;7.944;2022-10-17T10:25:51;20.30;99.90
16247;DHT22;8231;50.866;7.944;2022-10-17T10:28:24;20.30;99.90
16247;DHT22;8231;50.866;7.944;2022-10-17T10:30:54;20.50;99.90
16247;DHT22;8231;50.866;7.944;2022-10-17T10:33:26;20.70;99.90
16247;DHT22;8231;50.866;7.944;2022-10-17T10:35:58;21.00;99.90
16247;DHT22;8231;50.866;7.944;2022-10-17T10:38:28;21.20;99.90
16247;DHT22;8231;50.866;7.944;2022-10-17T10:41:01;21.40;99.90
16247;DHT22;8231;50.866;7.944;2022-10-17T10:43:33;21.60;99.90
16247;DHT22;8231;50.866;7.944;2022-10-17T10:46:05;21.80;99.90
16247;DHT22;8231;50.866;7.944;2022-10-17T10:48:34;22.00;99.90
16247;DHT22;8231;50.866;7.944;2022-10-17T10:51:08;22.00;99.90
16247;DHT22;8231;50.866;7.944;2022-10-17T10:53:44;22.10;99.90
16247;DHT22;8231;50.866;7.944;2022-10-17T10:56:16;22.00;99.90
16247;DHT22;8231;50.866;7.944;2022-10-17T10:58:51;22.10;99.90
16247;DHT22;8231;50.866;7.944;2022-10-17T11:01:25;22.20;99.90
16247;DHT22;8231;50.866;7.944;2022-10-17T11:04:04;22.40;99.90
16247;DHT22;8231;50.866;7.944;2022-10-17T11:06:36;22.50;99.90
16247;DHT22;8231;50.866;7.944;2022-10-17T11:09:16;22.60;99.90
16247;DHT22;8231;50.866;7.944;2022-10-17T11:11:48;22.60;99.90
16247;DHT22;8231;50.866;7.944;2022-10-17T11:14:36;22.70;99.90
16247;DHT22;8231;50.866;7.944;2022-10-17T11:17:11;22.90;99.90
16247;DHT22;8231;50.866;7.944;2022-10-17T11:19:44;23.20;99.90
16247;DHT22;8231;50.866;7.944;2022-10-17T11:22:22;23.40;99.90
16247;DHT22;8231;50.866;7.944;2022-10-17T11:24:57;23.50;99.90
16247;DHT22;8231;50.866;7.944;2022-10-17T11:27:27;23.70;99.90
16247;DHT22;8231;50.866;7.944;2022-10-17T11:29:57;23.90;99.90
16247;DHT22;8231;50.866;7.944;2022-10-17T11:32:27;24.10;99.90
16247;DHT22;8231;50.866;7.944;2022-10-17T11:35:02;24.30;99.90
16247;DHT22;8231;50.866;7.944;2022-10-17T11:37:35;24.30;99.90
16247;DHT22;8231;50.866;7.944;2022-10-17T11:40:14;24.50;99.90
16247;DHT22;8231;50.866;7.944;2022-10-17T11:42:54;24.80;99.90
16247;DHT22;8231;50.866;7.944;2022-10-17T11:45:26;25.00;99.90
16247;DHT22;8231;50.866;7.944;2022-10-17T11:48:00;24.80;99.90
16247;DHT22;8231;50.866;7.944;2022-10-17T11:50:33;24.70;99.90
16247;DHT22;8231;50.866;7.944;2022-10-17T11:53:26;24.60;99.90
16247;DHT22;8231;50.866;7.944;2022-10-17T11:55:57;25.10;99.90
16247;DHT22;8231;50.866;7.944;2022-10-17T11:58:33;25.40;99.90
16247;DHT22;8231;50.866;7.944;2022-10-17T12:01:12;25.60;99.90
16247;DHT22;8231;50.866;7.944;2022-10-17T12:04:01;26.00;99.90
16247;DHT22;8231;50.866;7.944;2022-10-17T12:06:46;26.20;99.90
16247;DHT22;8231;50.866;7.944;2022-10-17T12:09:23;26.10;99.90
16247;DHT22;8231;50.866;7.944;2022-10-17T12:11:54;25.80;99.90
16247;DHT22;8231;50.866;7.944;2022-10-17T12:17:34;26.20;99.90
16247;DHT22;8231;50.866;7.944;2022-10-17T12:20:29;26.50;99.90
16247;DHT22;8231;50.866;7.944;2022-10-17T12:23:13;26.30;99.90
16247;DHT22;8231;50.866;7.944;2022-10-17T12:25:50;26.00;99.90
16247;DHT22;8231;50.866;7.944;2022-10-17T12:28:26;25.70;99.90
16247;DHT22;8231;50.866;7.944;2022-10-17T12:30:57;25.30;99.90
16247;DHT22;8231;50.866;7.944;2022-10-17T12:33:31;25.10;99.90
16247;DHT22;8231;50.866;7.944;2022-10-17T12:42:48;26.10;99.90
16247;DHT22;8231;50.866;7.944;2022-10-17T12:45:48;26.00;99.90
16247;DHT22;8231;50.866;7.944;2022-10-17T12:48:58;26.20;99.90
16247;DHT22;8231;50.866;7.944;2022-10-17T12:51:27;27.40;99.90
16247;DHT22;8231;50.866;7.944;2022-10-17T12:54:09;27.70;99.90
16247;DHT22;8231;50.866;7.944;2022-10-17T12:56:40;27.10;99.90
16247;DHT22;8231;50.866;7.944;2022-10-17T12:59:14;26.20;99.90
16247;DHT22;8231;50.866;7.944;2022-10-17T13:01:46;25.40;99.90
16247;DHT22;8231;50.866;7.944;2022-10-17T13:04:15;25.20;99.90
16247;DHT22;8231;50.866;7.944;2022-10-17T13:06:46;25.00;99.90
16247;DHT22;8231;50.866;7.944;2022-10-17T13:09:21;24.90;99.90
16247;DHT22;8231;50.866;7.944;2022-10-17T13:11:50;25.00;99.90
16247;DHT22;8231;50.866;7.944;2022-10-17T13:14:21;25.00;99.90
16247;DHT22;8231;50.866;7.944;2022-10-17T13:16:52;25.20;99.90
16247;DHT22;8231;50.866;7.944;2022-10-17T13:19:22;26.20;99.90
16247;DHT22;8231;50.866;7.944;2022-10-17T13:21:51;27.70;99.90
16247;DHT22;8231;50.866;7.944;2022-10-17T13:24:25;29.10;99.90
16247;DHT22;8231;50.866;7.944;2022-10-17T13:26:54;29.90;99.90
16247;DHT22;8231;50.866;7.944;2022-10-17T13:29:25;29.60;99.90
16247;DHT22;8231;50.866;7.944;2022-10-17T13:31:56;29.40;99.90
16247;DHT22;8231;50.866;7.944;2022-10-17T13:34:27;28.80;99.90
16247;DHT22;8231;50.866;7.944;2022-10-17T13:36:58;28.10;99.90
16247;DHT22;8231;50.866;7.944;2022-10-17T13:39:31;27.90;99.90
16247;DHT22;8231;50.866;7.944;2022-10-17T13:42:23;28.60;99.90
16247;DHT22;8231;50.866;7.944;2022-10-17T13:44:55;28.50;99.90
16247;DHT22;8231;50.866;7.944;2022-10-17T13:47:25;28.70;99.90
16247;DHT22;8231;50.866;7.944;2022-10-17T13:49:54;28.90;99.90
16247;DHT22;8231;50.866;7.944;2022-10-17T13:52:26;28.60;99.90
16247;DHT22;8231;50.866;7.944;2022-10-17T13:55:06;28.10;99.90
16247;DHT22;8231;50.866;7.944;2022-10-17T13:57:38;27.10;99.90
16247;DHT22;8231;50.866;7.944;2022-10-17T14:00:17;26.30;99.90
16247;DHT22;8231;50.866;7.944;2022-10-17T14:02:47;25.90;99.90
16247;DHT22;8231;50.866;7.944;2022-10-17T14:05:17;25.60;99.90
16247;DHT22;8231;50.866;7.944;2022-10-17T14:07:50;25.40;99.90
16247;DHT22;8231;50.866;7.944;2022-10-17T14:10:40;25.10;99.90
16247;DHT22;8231;50.866;7.944;2022-10-17T14:13:18;24.80;99.90
16247;DHT22;8231;50.866;7.944;2022-10-17T14:15:50;24.60;99.90
16247;DHT22;8231;50.866;7.944;2022-10-17T14:18:22;24.30;99.90
16247;DHT22;8231;50.866;7.944;2022-10-17T14:20:52;24.00;99.90
16247;DHT22;8231;50.866;7.944;2022-10-17T14:23:41;23.80;99.90
16247;DHT22;8231;50.866;7.944;2022-10-17T14:26:12;23.70;99.90
16247;DHT22;8231;50.866;7.944;2022-10-17T14:28:42;23.70;99.90
16247;DHT22;8231;50.866;7.944;2022-10-17T14:31:21;23.70;99.90
16247;DHT22;8231;50.866;7.944;2022-10-17T14:33:52;23.60;99.90
16247;DHT22;8231;50.866;7.944;2022-10-17T14:36:30;23.50;99.90
16247;DHT22;8231;50.866;7.944;2022-10-17T14:38:59;23.40;99.90
16247;DHT22;8231;50.866;7.944;2022-10-17T14:41:29;23.20;99.90
16247;DHT22;8231;50.866;7.944;2022-10-17T14:44:18;23.00;99.90
16247;DHT22;8231;50.866;7.944;2022-10-17T14:46:52;22.80;99.90
16247;DHT22;8231;50.866;7.944;2022-10-17T14:49:29;22.70;99.90
16247;DHT22;8231;50.866;7.944;2022-10-17T14:52:26;22.60;99.90
16247;DHT22;8231;50.866;7.944;2022-10-17T14:54:56;22.50;99.90
16247;DHT22;8231;50.866;7.944;2022-10-17T14:57:40;22.40;99.90
16247;DHT22;8231;50.866;7.944;2022-10-17T15:00:13;22.40;99.90
16247;DHT22;8231;50.866;7.944;2022-10-17T15:02:43;22.40;99.90
16247;DHT22;8231;50.866;7.944;2022-10-17T15:05:12;22.30;99.90
16247;DHT22;8231;50.866;7.944;2022-10-17T15:07:40;22.30;99.90
16247;DHT22;8231;50.866;7.944;2022-10-17T15:10:23;22.20;99.90
16247;DHT22;8231;50.866;7.944;2022-10-17T15:12:51;22.20;99.90
16247;DHT22;8231;50.866;7.944;2022-10-17T15:15:26;22.20;99.90
16247;DHT22;8231;50.866;7.944;2022-10-17T15:17:56;22.10;99.90
16247;DHT22;8231;50.866;7.944;2022-10-17T15:20:25;22.10;99.90
16247;DHT22;8231;50.866;7.944;2022-10-17T15:22:57;21.90;99.90
16247;DHT22;8231;50.866;7.944;2022-10-17T15:25:26;21.80;99.90
16247;DHT22;8231;50.866;7.944;2022-10-17T15:27:54;21.70;99.90
16247;DHT22;8231;50.866;7.944;2022-10-17T15:30:25;21.60;99.90
16247;DHT22;8231;50.866;7.944;2022-10-17T15:32:53;21.50;99.90
16247;DHT22;8231;50.866;7.944;2022-10-17T15:35:23;21.40;99.90
16247;DHT22;8231;50.866;7.944;2022-10-17T15:37:52;21.40;99.90
16247;DHT22;8231;50.866;7.944;2022-10-17T15:40:22;21.20;99.90
16247;DHT22;8231;50.866;7.944;2022-10-17T15:42:51;21.30;99.90
16247;DHT22;8231;50.866;7.944;2022-10-17T15:45:19;21.10;99.90
16247;DHT22;8231;50.866;7.944;2022-10-17T15:47:50;21.00;99.90
16247;DHT22;8231;50.866;7.944;2022-10-17T15:50:19;21.00;99.90
16247;DHT22;8231;50.866;7.944;2022-10-17T15:52:49;21.00;99.90
16247;DHT22;8231;50.866;7.944;2022-10-17T15:55:18;20.80;99.90
16247;DHT22;8231;50.866;7.944;2022-10-17T15:57:47;20.70;99.90
16247;DHT22;8231;50.866;7.944;2022-10-17T16:00:17;20.60;99.90
16247;DHT22;8231;50.866;7.944;2022-10-17T16:02:46;20.50;99.90
16247;DHT22;8231;50.866;7.944;2022-10-17T16:05:17;20.40;99.90
16247;DHT22;8231;50.866;7.944;2022-10-17T16:07:50;20.30;99.90
16247;DHT22;8231;50.866;7.944;2022-10-17T16:10:20;20.30;99.90
16247;DHT22;8231;50.866;7.944;2022-10-17T16:12:48;20.40;99.90
16247;DHT22;8231;50.866;7.944;2022-10-17T16:15:18;20.20;99.90
16247;DHT22;8231;50.866;7.944;2022-10-17T16:17:48;20.10;99.90
16247;DHT22;8231;50.866;7.944;2022-10-17T16:20:17;20.10;99.90
16247;DHT22;8231;50.866;7.944;2022-10-17T16:22:46;20.00;99.90
16247;DHT22;8231;50.866;7.944;2022-10-17T16:25:19;20.00;99.90
16247;DHT22;8231;50.866;7.944;2022-10-17T16:27:49;19.90;99.90
16247;DHT22;8231;50.866;7.944;2022-10-17T16:30:18;19.80;99.90
16247;DHT22;8231;50.866;7.944;2022-10-17T16:32:46;19.70;99.90
16247;DHT22;8231;50.866;7.944;2022-10-17T16:35:18;19.70;99.90